Time;durP1;ratioP1;P1;durP2;ratioP2;P2;SDS_P1;SDS_P2;PMS_P1;PMS_P2;Temp;Humidity;BMP_temperature;BMP_pressure;BME280_temperature;BME280_humidity;BME280_pressure;Samples;Min_cycle;Max_cycle;Signal;HPM_P1;HPM_P2
2022/06/30 00:02:18;;;;;;;250.53;237.33;;;18.30;80.70;;;;;;5003242;28;20288;-65
2022/06/30 00:04:44;;;;;;;197.13;186.97;;;18.30;80.80;;;;;;5003098;28;20277;-65
2022/06/30 00:07:10;;;;;;;180.33;170.67;;;18.20;80.60;;;;;;5000414;28;20677;-65
2022/06/30 00:09:35;;;;;;;153.47;145.30;;;18.20;80.80;;;;;;5002018;28;20285;-65
2022/06/30 00:12:01;;;;;;;190.33;180.60;;;18.20;80.80;;;;;;4999475;28;20486;-65
2022/06/30 00:14:27;;;;;;;135.60;128.50;;;18.20;80.80;;;;;;5003128;28;20124;-65
2022/06/30 00:16:53;;;;;;;194.97;185.17;;;18.20;80.60;;;;;;5019803;28;20050;-65
2022/06/30 00:19:18;;;;;;;242.53;230.53;;;18.20;80.60;;;;;;5002513;28;20502;-65
2022/06/30 00:21:44;;;;;;;229.57;218.63;;;18.10;80.60;;;;;;4970790;28;20030;-65
2022/06/30 00:24:10;;;;;;;138.33;131.53;;;18.10;80.50;;;;;;5002872;28;20050;-65
2022/06/30 00:26:35;;;;;;;227.20;216.37;;;18.10;80.30;;;;;;5001164;28;20061;-65
2022/06/30 00:29:01;;;;;;;151.53;143.83;;;18.10;80.20;;;;;;5003056;28;20044;-65
2022/06/30 00:31:27;;;;;;;167.33;158.30;;;18.10;80.10;;;;;;4984949;28;20588;-65
2022/06/30 00:33:52;;;;;;;241.93;229.60;;;18.00;79.90;;;;;;5002181;28;20133;-65
2022/06/30 00:36:18;;;;;;;253.77;240.77;;;18.00;79.80;;;;;;4986782;28;20034;-65
2022/06/30 00:38:44;;;;;;;137.20;129.87;;;18.00;79.70;;;;;;5001551;28;20042;-65
2022/06/30 00:41:10;;;;;;;209.93;199.17;;;18.00;79.50;;;;;;5002436;28;20092;-65
2022/06/30 00:43:46;;;;;;;195.07;184.83;;;18.00;79.30;;;;;;4985640;28;20037;-65
2022/06/30 00:46:12;;;;;;;194.87;185.10;;;18.00;79.30;;;;;;4984605;28;20316;-65
2022/06/30 00:48:38;;;;;;;210.77;200.27;;;18.00;78.90;;;;;;5005408;28;20292;-65
2022/06/30 00:51:05;;;;;;;232.53;221.30;;;18.00;78.70;;;;;;5006579;28;20299;-65
2022/06/30 00:53:35;;;;;;;198.43;188.67;;;17.90;78.60;;;;;;5005668;28;20037;-65
2022/06/30 00:56:05;;;;;;;210.00;199.63;;;17.90;78.40;;;;;;5004962;28;21022;-65
2022/06/30 00:58:36;;;;;;;167.93;159.57;;;17.90;78.20;;;;;;5004582;28;20293;-65
2022/06/30 01:01:03;;;;;;;206.13;196.13;;;17.90;78.10;;;;;;5005538;28;20280;-65
2022/06/30 01:03:31;;;;;;;139.93;132.53;;;17.80;77.70;;;;;;5001887;28;20288;-65
2022/06/30 01:05:58;;;;;;;135.70;128.50;;;17.80;77.70;;;;;;5005743;28;20296;-65
2022/06/30 01:08:25;;;;;;;184.50;175.53;;;17.80;77.40;;;;;;4989651;28;20328;-65
2022/06/30 01:13:43;;;;;;;168.00;159.70;;;17.80;77.20;;;;;;4999376;28;20297;-66
2022/06/30 01:16:10;;;;;;;204.17;193.97;;;17.70;77.00;;;;;;5006145;28;21015;-66
2022/06/30 01:18:36;;;;;;;133.20;125.97;;;17.70;76.90;;;;;;5019395;28;20041;-66
2022/06/30 01:21:02;;;;;;;183.10;173.87;;;17.70;76.90;;;;;;5006413;28;20277;-66
2022/06/30 01:23:28;;;;;;;183.83;174.40;;;17.70;76.80;;;;;;5005572;28;20034;-66
2022/06/30 01:25:54;;;;;;;181.60;172.57;;;17.70;76.70;;;;;;5005869;28;20297;-66
2022/06/30 01:28:20;;;;;;;175.63;166.70;;;17.60;76.80;;;;;;4990100;28;20046;-66
2022/06/30 01:30:46;;;;;;;158.90;150.73;;;17.60;76.90;;;;;;5005529;28;20034;-66
2022/06/30 01:33:12;;;;;;;143.77;136.47;;;17.60;76.70;;;;;;4989316;28;21203;-66
2022/06/30 01:35:38;;;;;;;195.93;186.00;;;17.60;76.70;;;;;;5006282;28;20125;-66
2022/06/30 01:38:04;;;;;;;218.70;207.70;;;17.50;76.70;;;;;;5020229;28;20316;-66
2022/06/30 01:40:36;;;;;;;171.57;163.00;;;17.50;76.60;;;;;;4989040;28;20033;-66
2022/06/30 01:43:04;;;;;;;178.37;169.23;;;17.50;76.80;;;;;;5005479;28;20288;-66
2022/06/30 01:45:30;;;;;;;201.73;191.63;;;17.60;76.80;;;;;;5021710;28;20288;-66
2022/06/30 01:47:56;;;;;;;183.60;174.33;;;17.60;76.70;;;;;;4985464;28;20289;-66
2022/06/30 01:50:24;;;;;;;163.70;155.40;;;17.60;76.70;;;;;;4972960;28;20033;-66
2022/06/30 01:52:50;;;;;;;161.50;153.43;;;17.60;76.60;;;;;;5005734;28;20437;-66
2022/06/30 01:55:16;;;;;;;177.00;168.23;;;17.60;76.50;;;;;;5001184;28;20301;-66
2022/06/30 01:57:42;;;;;;;171.60;162.80;;;17.60;76.60;;;;;;4987120;28;20050;-66
2022/06/30 02:00:11;;;;;;;151.97;144.00;;;17.60;76.60;;;;;;5010106;28;20352;-66
2022/06/30 02:02:37;;;;;;;158.67;150.43;;;17.50;76.50;;;;;;5003506;28;20277;-66
2022/06/30 02:05:04;;;;;;;178.93;169.83;;;17.50;76.50;;;;;;5004992;28;20363;-66
2022/06/30 02:07:30;;;;;;;162.40;154.17;;;17.50;76.40;;;;;;5003160;28;20285;-66
2022/06/30 02:09:56;;;;;;;130.40;123.50;;;17.50;76.20;;;;;;5002819;28;20295;-66
2022/06/30 02:15:09;;;;;;;150.98;143.07;;;17.50;76.00;;;;;;5020307;28;20296;-66
2022/06/30 02:17:36;;;;;;;149.50;142.00;;;17.50;76.00;;;;;;4987694;28;20045;-66
2022/06/30 02:20:02;;;;;;;168.93;160.67;;;17.50;76.20;;;;;;4999422;28;20280;-67
2022/06/30 02:22:28;;;;;;;114.23;108.47;;;17.50;76.40;;;;;;5017670;28;20656;-66
2022/06/30 02:24:54;;;;;;;140.43;133.17;;;17.50;76.50;;;;;;5005179;28;20292;-66
2022/06/30 02:27:23;;;;;;;156.27;148.33;;;17.40;76.50;;;;;;5004534;28;20442;-66
2022/06/30 02:29:49;;;;;;;134.93;128.20;;;17.40;76.50;;;;;;5004967;28;20121;-66
2022/06/30 02:32:14;;;;;;;174.50;165.73;;;17.30;76.50;;;;;;5000603;28;20415;-66
2022/06/30 02:34:40;;;;;;;168.07;159.70;;;17.30;76.70;;;;;;4986843;28;20442;-66
2022/06/30 02:37:06;;;;;;;155.80;148.07;;;17.30;76.50;;;;;;5002432;28;20041;-66
2022/06/30 02:39:32;;;;;;;144.27;137.07;;;17.30;76.50;;;;;;5004188;28;20449;-66
2022/06/30 02:41:57;;;;;;;146.50;139.43;;;17.30;76.40;;;;;;5003306;28;20093;-66
2022/06/30 02:44:23;;;;;;;132.50;125.80;;;17.20;76.40;;;;;;4987972;28;20080;-66
2022/06/30 02:46:50;;;;;;;122.80;116.77;;;17.20;76.30;;;;;;5022311;28;20042;-66
2022/06/30 02:49:17;;;;;;;136.40;129.67;;;17.20;76.40;;;;;;5006637;28;20080;-66
2022/06/30 02:51:43;;;;;;;137.40;130.50;;;17.10;76.30;;;;;;4990486;28;20658;-66
2022/06/30 02:54:08;;;;;;;147.83;140.43;;;17.10;76.20;;;;;;5006702;28;20302;-66
2022/06/30 02:56:34;;;;;;;133.53;126.77;;;17.10;76.50;;;;;;5002186;28;20082;-66
2022/06/30 02:59:00;;;;;;;190.23;181.07;;;17.10;76.30;;;;;;5019585;28;20406;-66
2022/06/30 03:01:25;;;;;;;138.50;131.33;;;17.00;76.30;;;;;;5021999;28;20121;-66
2022/06/30 03:03:51;;;;;;;101.77;96.60;;;17.00;76.30;;;;;;4999796;28;20042;-66
2022/06/30 03:06:17;;;;;;;41.13;38.90;;;17.00;76.20;;;;;;5004690;28;20042;-66
2022/06/30 03:08:42;;;;;;;56.37;52.87;;;17.00;76.30;;;;;;5004878;28;20438;-67
2022/06/30 03:11:08;;;;;;;72.43;68.40;;;17.00;76.30;;;;;;4989294;28;20041;-66
2022/06/30 03:13:34;;;;;;;38.63;36.30;;;16.90;76.30;;;;;;4987270;28;20343;-66
2022/06/30 03:16:01;;;;;;;245.83;232.23;;;16.90;76.30;;;;;;4988554;28;20042;-66
2022/06/30 03:18:27;;;;;;;22.70;21.20;;;16.90;76.30;;;;;;4978160;28;20132;-66
2022/06/30 03:20:53;;;;;;;182.70;172.90;;;16.80;76.50;;;;;;4983609;28;20292;-66
2022/06/30 03:23:19;;;;;;;235.90;222.50;;;16.80;76.50;;;;;;5006232;28;20288;-64
2022/06/30 03:25:44;;;;;;;296.40;279.90;;;16.80;76.50;;;;;;4990751;28;20478;-64
2022/06/30 03:28:10;;;;;;;281.37;265.10;;;16.70;76.70;;;;;;5006022;28;20053;-64
2022/06/30 03:30:36;;;;;;;249.70;236.03;;;16.70;76.90;;;;;;5003342;28;20050;-64
2022/06/30 03:33:02;;;;;;;263.27;249.07;;;16.70;77.10;;;;;;5005953;28;20042;-64
2022/06/30 03:35:30;;;;;;;262.83;248.40;;;16.60;77.00;;;;;;5004587;28;20308;-64
2022/06/30 03:37:55;;;;;;;265.33;250.97;;;16.60;77.10;;;;;;4997066;28;20136;-65
2022/06/30 03:40:21;;;;;;;241.03;228.27;;;16.60;77.10;;;;;;4987579;28;20328;-65
2022/06/30 03:42:47;;;;;;;244.83;232.00;;;16.60;77.20;;;;;;5006167;28;20065;-65
2022/06/30 03:45:13;;;;;;;260.90;246.90;;;16.60;77.20;;;;;;4989680;28;20050;-64
2022/06/30 03:47:38;;;;;;;198.03;187.97;;;16.60;77.30;;;;;;4989719;28;20045;-65
2022/06/30 03:50:05;;;;;;;240.87;228.50;;;16.70;77.40;;;;;;4989475;28;20461;-65
2022/06/30 03:52:30;;;;;;;236.67;224.80;;;16.70;77.30;;;;;;5006242;28;20567;-65
2022/06/30 03:54:56;;;;;;;247.60;234.97;;;16.70;77.50;;;;;;5005633;28;20304;-65
2022/06/30 03:57:21;;;;;;;235.40;223.50;;;16.80;77.70;;;;;;5006401;28;20544;-65
2022/06/30 03:59:47;;;;;;;252.53;239.73;;;16.90;77.50;;;;;;5004177;28;20042;-65
2022/06/30 04:02:13;;;;;;;245.63;233.00;;;17.00;77.60;;;;;;5006321;28;20038;-65
2022/06/30 04:04:39;;;;;;;255.73;243.13;;;17.00;77.40;;;;;;5005626;28;20041;-65
2022/06/30 04:07:04;;;;;;;238.03;225.60;;;17.10;77.40;;;;;;5002371;28;20145;-65
2022/06/30 04:09:30;;;;;;;260.20;245.93;;;17.10;77.10;;;;;;5004779;28;20609;-65
2022/06/30 04:11:56;;;;;;;257.73;243.40;;;17.20;76.90;;;;;;5005913;28;20042;-65
2022/06/30 04:14:21;;;;;;;248.60;234.50;;;17.20;77.10;;;;;;5005745;28;20049;-66
2022/06/30 04:16:47;;;;;;;218.33;206.37;;;17.20;76.80;;;;;;4988391;28;20049;-66
2022/06/30 04:19:13;;;;;;;253.00;239.43;;;17.20;76.60;;;;;;5005373;28;20516;-66
2022/06/30 04:21:38;;;;;;;243.03;229.70;;;17.20;76.60;;;;;;5008610;28;20070;-66
2022/06/30 04:24:04;;;;;;;255.60;241.60;;;17.20;76.60;;;;;;5009912;28;20045;-66
2022/06/30 04:26:30;;;;;;;270.73;255.73;;;17.20;76.50;;;;;;5021930;28;20034;-66
2022/06/30 04:28:56;;;;;;;243.07;229.73;;;17.20;76.60;;;;;;4991998;28;20060;-66
2022/06/30 04:34:06;;;;;;;246.90;233.37;;;17.30;76.50;;;;;;4995536;28;20049;-64
2022/06/30 04:36:31;;;;;;;297.10;281.50;;;17.40;76.60;;;;;;5008383;28;20783;-64
2022/06/30 04:39:00;;;;;;;257.10;243.17;;;17.60;77.00;;;;;;5024787;28;20049;-65
2022/06/30 04:41:25;;;;;;;263.03;248.63;;;18.10;76.70;;;;;;5006949;28;20076;-65
2022/06/30 04:43:52;;;;;;;290.37;274.57;;;18.90;74.90;;;;;;4992751;28;20672;-65
2022/06/30 04:46:18;;;;;;;318.30;299.53;;;19.70;72.70;;;;;;5009550;28;20072;-65
2022/06/30 04:48:43;;;;;;;306.23;289.67;;;20.40;70.20;;;;;;4991575;28;20983;-64
2022/06/30 04:51:09;;;;;;;200.57;190.43;;;20.90;69.10;;;;;;5003126;28;20038;-65
2022/06/30 04:53:35;;;;;;;223.97;212.67;;;21.10;67.80;;;;;;4991866;28;20038;-65
2022/06/30 04:56:01;;;;;;;203.70;193.33;;;21.00;67.70;;;;;;5007738;28;20679;-65
2022/06/30 04:58:27;;;;;;;196.67;186.63;;;20.90;67.40;;;;;;4990034;28;20065;-65
2022/06/30 05:00:52;;;;;;;180.70;171.40;;;21.00;67.50;;;;;;5026048;28;20494;-65
2022/06/30 05:03:18;;;;;;;192.53;182.60;;;21.20;66.90;;;;;;4991278;28;20053;-65
2022/06/30 05:05:44;;;;;;;210.20;199.30;;;21.20;66.70;;;;;;5008300;28;20041;-65
2022/06/30 05:08:09;;;;;;;178.50;169.47;;;21.20;67.40;;;;;;4989535;28;20054;-65
2022/06/30 05:10:35;;;;;;;166.00;157.57;;;21.70;66.90;;;;;;5007806;28;20038;-66
2022/06/30 05:13:01;;;;;;;192.07;182.13;;;22.40;65.50;;;;;;5007973;28;20053;-65
2022/06/30 05:15:27;;;;;;;200.93;190.87;;;23.10;63.80;;;;;;5023616;28;20041;-65
2022/06/30 05:17:53;;;;;;;229.87;218.27;;;23.50;62.00;;;;;;5003408;28;20503;-65
2022/06/30 05:20:19;;;;;;;229.17;217.33;;;23.90;61.10;;;;;;4989906;28;20041;-65
2022/06/30 05:22:44;;;;;;;248.63;235.50;;;24.20;60.40;;;;;;5006105;28;20050;-65
2022/06/30 05:27:54;;;;;;;267.37;253.20;;;24.80;58.80;;;;;;5007512;28;20095;-65
2022/06/30 05:30:20;;;;;;;247.67;234.60;;;24.90;57.90;;;;;;5008555;28;20125;-65
2022/06/30 05:32:46;;;;;;;258.67;245.43;;;25.10;57.50;;;;;;5023465;28;20037;-65
2022/06/30 05:35:12;;;;;;;281.67;266.70;;;25.00;57.10;;;;;;5023805;28;20459;-65
2022/06/30 05:37:38;;;;;;;275.97;261.30;;;25.30;57.00;;;;;;4979928;28;20052;-65
2022/06/30 05:40:07;;;;;;;285.47;270.30;;;25.50;56.30;;;;;;5006172;28;20041;-65
2022/06/30 05:42:33;;;;;;;288.90;273.03;;;25.60;55.90;;;;;;5021061;28;20510;-65
2022/06/30 05:44:58;;;;;;;305.20;289.00;;;25.70;55.80;;;;;;5007485;28;20034;-66
2022/06/30 05:47:24;;;;;;;314.13;297.07;;;25.90;55.70;;;;;;5005424;28;20034;-65
2022/06/30 05:49:50;;;;;;;321.97;304.70;;;26.00;55.10;;;;;;4991236;28;20072;-65
2022/06/30 05:52:15;;;;;;;319.17;301.93;;;26.10;55.00;;;;;;5003900;28;20101;-65
2022/06/30 05:54:41;;;;;;;312.20;295.77;;;26.10;54.40;;;;;;5000239;28;20093;-65
2022/06/30 05:57:07;;;;;;;337.80;319.30;;;26.00;54.70;;;;;;5002076;28;20046;-65
2022/06/30 05:59:34;;;;;;;312.63;295.60;;;25.90;55.10;;;;;;5014260;28;20616;-65
2022/06/30 06:02:00;;;;;;;278.17;263.30;;;25.90;54.80;;;;;;5006028;28;20034;-65
2022/06/30 06:04:26;;;;;;;327.70;309.90;;;25.80;54.80;;;;;;5007888;28;20444;-65
2022/06/30 06:06:52;;;;;;;310.80;294.70;;;25.90;55.40;;;;;;5006984;28;20042;-65
2022/06/30 06:09:18;;;;;;;285.97;271.57;;;26.20;54.90;;;;;;5003362;28;20152;-66
2022/06/30 06:11:44;;;;;;;312.60;295.53;;;26.40;54.70;;;;;;5006992;28;20565;-66
2022/06/30 06:14:09;;;;;;;319.43;302.13;;;26.50;54.10;;;;;;5019480;28;20050;-66
2022/06/30 06:16:35;;;;;;;299.20;283.30;;;26.70;54.00;;;;;;5006990;28;20160;-66
2022/06/30 06:19:01;;;;;;;308.47;291.63;;;26.70;54.00;;;;;;5007331;28;20049;-66
2022/06/30 06:21:27;;;;;;;306.87;291.00;;;26.90;54.00;;;;;;5006738;28;20081;-66
2022/06/30 06:23:53;;;;;;;292.23;276.80;;;27.10;53.50;;;;;;5020923;28;20041;-66
2022/06/30 06:26:20;;;;;;;315.93;299.23;;;27.20;53.40;;;;;;5021000;28;20426;-66
2022/06/30 06:31:38;;;;;;;;;;;27.40;53.60;;;;;;4998618;28;20053;-66
2022/06/30 06:34:05;;;;;;;327.93;309.77;;;27.40;53.40;;;;;;5003748;28;19972;-66
2022/06/30 06:36:31;;;;;;;321.57;303.50;;;27.60;53.50;;;;;;4989393;28;20045;-66
2022/06/30 06:38:57;;;;;;;362.93;342.33;;;27.50;53.40;;;;;;5006971;28;20056;-66
2022/06/30 06:41:24;;;;;;;313.93;296.33;;;27.30;53.50;;;;;;5003744;28;20537;-66
2022/06/30 06:43:50;;;;;;;296.37;280.33;;;27.20;53.80;;;;;;5019314;28;20379;-66
2022/06/30 06:46:17;;;;;;;358.23;338.23;;;27.10;54.30;;;;;;5022646;28;20072;-66
2022/06/30 06:48:43;;;;;;;276.50;261.50;;;27.20;54.30;;;;;;5022770;28;20042;-66
2022/06/30 06:51:09;;;;;;;337.37;319.27;;;27.20;54.30;;;;;;5006715;28;20050;-66
2022/06/30 06:53:36;;;;;;;346.00;326.87;;;27.00;54.40;;;;;;4985968;28;20069;-66
2022/06/30 06:56:02;;;;;;;297.33;281.10;;;26.90;55.10;;;;;;5006414;28;20057;-66
2022/06/30 06:58:28;;;;;;;326.73;308.27;;;26.80;55.40;;;;;;5006001;28;20046;-66
2022/06/30 07:00:54;;;;;;;304.40;287.40;;;26.80;55.50;;;;;;5002979;28;20068;-66
2022/06/30 07:03:20;;;;;;;352.20;333.07;;;26.50;55.90;;;;;;5006376;28;20046;-66
2022/06/30 07:05:46;;;;;;;338.63;320.30;;;26.40;56.20;;;;;;5006208;28;20042;-66
2022/06/30 07:08:12;;;;;;;346.53;328.47;;;26.20;56.50;;;;;;5005673;28;20072;-66
2022/06/30 07:10:38;;;;;;;321.33;303.87;;;26.10;57.20;;;;;;4986925;28;20047;-66
2022/06/30 07:13:03;;;;;;;334.73;316.30;;;26.00;57.60;;;;;;5000333;28;20129;-66
2022/06/30 07:15:29;;;;;;;277.37;261.67;;;25.80;58.00;;;;;;4990329;28;20571;-66
2022/06/30 07:17:55;;;;;;;333.70;314.77;;;25.70;58.60;;;;;;5005854;28;20096;-66
2022/06/30 07:20:21;;;;;;;351.67;332.50;;;25.60;59.20;;;;;;5006398;28;20053;-66
2022/06/30 07:22:47;;;;;;;334.93;316.10;;;25.60;59.80;;;;;;5005660;28;20088;-66
2022/06/30 07:25:13;;;;;;;334.73;316.13;;;25.40;60.00;;;;;;5001776;28;20104;-66
2022/06/30 07:27:39;;;;;;;374.50;353.60;;;25.30;60.20;;;;;;5022302;28;20529;-66
2022/06/30 07:30:05;;;;;;;382.83;361.20;;;25.20;60.40;;;;;;4970461;28;20077;-66
2022/06/30 07:32:31;;;;;;;360.80;341.20;;;25.10;60.90;;;;;;4980048;28;20037;-66
2022/06/30 07:34:57;;;;;;;335.73;318.07;;;25.00;61.90;;;;;;5006239;28;20054;-65
2022/06/30 07:37:23;;;;;;;344.20;325.30;;;25.00;62.20;;;;;;5003060;28;20052;-66
2022/06/30 07:39:49;;;;;;;278.27;263.27;;;25.00;61.70;;;;;;4990379;28;20050;-66
2022/06/30 07:42:15;;;;;;;321.03;304.13;;;25.00;61.60;;;;;;5005072;28;20100;-66
2022/06/30 07:44:42;;;;;;;289.60;273.73;;;25.00;61.70;;;;;;4986550;28;20064;-66
2022/06/30 07:47:08;;;;;;;254.17;240.53;;;25.10;61.50;;;;;;4989059;28;20080;-66
2022/06/30 07:49:34;;;;;;;242.77;229.97;;;25.10;61.50;;;;;;5005950;28;20081;-66
2022/06/30 07:51:59;;;;;;;278.10;263.00;;;25.20;61.20;;;;;;4984918;28;20034;-66
2022/06/30 07:54:25;;;;;;;239.27;226.17;;;25.30;61.50;;;;;;4989780;28;20099;-66
2022/06/30 07:56:51;;;;;;;256.90;242.93;;;25.30;61.10;;;;;;5005471;28;20058;-65
2022/06/30 07:59:16;;;;;;;278.97;264.43;;;25.40;61.00;;;;;;5005834;28;20441;-65
2022/06/30 08:01:42;;;;;;;268.17;253.43;;;25.40;61.00;;;;;;5005371;28;20107;-65
2022/06/30 08:04:09;;;;;;;269.53;255.23;;;25.50;60.40;;;;;;5005976;28;20073;-65
2022/06/30 08:06:35;;;;;;;285.40;269.37;;;25.60;60.60;;;;;;4981751;28;20442;-65
2022/06/30 08:09:00;;;;;;;303.00;287.00;;;25.70;60.30;;;;;;5005821;28;20045;-66
2022/06/30 08:11:28;;;;;;;296.90;281.20;;;25.70;60.00;;;;;;5004912;28;20425;-66
2022/06/30 08:13:53;;;;;;;292.37;276.67;;;25.80;59.90;;;;;;5006013;28;20152;-66
2022/06/30 08:16:19;;;;;;;303.07;286.70;;;25.80;59.80;;;;;;5005442;28;20652;-66
2022/06/30 08:18:45;;;;;;;297.37;279.97;;;25.90;59.90;;;;;;4986011;28;20054;-66
2022/06/30 08:21:10;;;;;;;245.03;231.57;;;26.00;60.00;;;;;;4981505;28;20081;-66
2022/06/30 08:23:37;;;;;;;308.13;291.30;;;26.10;59.00;;;;;;4969918;28;20053;-66
2022/06/30 08:26:03;;;;;;;203.70;192.30;;;26.10;59.20;;;;;;4961889;28;20149;-66
2022/06/30 08:28:31;;;;;;;294.23;278.73;;;26.20;59.20;;;;;;5002239;28;20422;-66
2022/06/30 08:30:57;;;;;;;272.60;257.27;;;26.40;58.90;;;;;;4985312;28;20100;-66
2022/06/30 08:33:23;;;;;;;292.90;276.57;;;26.40;57.60;;;;;;5001899;28;20053;-66
2022/06/30 08:35:49;;;;;;;311.70;294.27;;;26.50;57.20;;;;;;4967881;28;20042;-66
2022/06/30 08:38:14;;;;;;;360.00;337.73;;;26.50;57.90;;;;;;4988515;28;20088;-66
2022/06/30 08:43:29;;;;;;;258.97;244.93;;;26.70;57.40;;;;;;5021955;28;20422;-66
2022/06/30 08:45:55;;;;;;;134.73;127.00;;;26.70;57.10;;;;;;5005502;28;20053;-66
2022/06/30 08:48:21;;;;;;;364.83;343.67;;;26.70;57.30;;;;;;4988243;28;20521;-67
2022/06/30 08:50:49;;;;;;;322.97;304.07;;;26.80;57.70;;;;;;5005340;28;20049;-66
2022/06/30 08:53:23;;;;;;;362.03;340.73;;;26.80;57.30;;;;;;5002080;28;20062;-67
2022/06/30 08:55:50;;;;;;;354.23;333.80;;;26.80;56.70;;;;;;5021335;28;20058;-66
2022/06/30 08:58:19;;;;;;;314.93;297.23;;;26.70;57.80;;;;;;5000678;28;20509;-66
2022/06/30 09:00:45;;;;;;;292.13;275.40;;;26.70;57.10;;;;;;5002234;28;20124;-67
2022/06/30 09:03:11;;;;;;;318.80;300.37;;;26.60;58.10;;;;;;4977913;28;20046;-67
2022/06/30 09:05:38;;;;;;;330.53;312.10;;;26.60;57.90;;;;;;5019119;28;20120;-67
2022/06/30 09:08:04;;;;;;;319.67;301.80;;;26.80;57.50;;;;;;5006145;28;20042;-66
2022/06/30 09:10:30;;;;;;;321.60;304.07;;;26.90;57.20;;;;;;5008806;28;20553;-66
2022/06/30 09:13:01;;;;;;;338.80;319.50;;;26.80;57.80;;;;;;4991771;28;20046;-66
2022/06/30 09:15:38;;;;;;;334.37;314.33;;;26.90;57.90;;;;;;4972880;28;20125;-67
2022/06/30 09:18:05;;;;;;;267.03;252.03;;;26.80;57.00;;;;;;5006209;28;20042;-67
2022/06/30 09:20:38;;;;;;;313.87;295.70;;;26.70;57.40;;;;;;5008274;28;20332;-67
2022/06/30 09:23:26;;;;;;;290.77;273.55;;;26.50;57.20;;;;;;5008276;28;20446;-67
2022/06/30 09:25:54;;;;;;;302.23;285.50;;;26.50;56.70;;;;;;5008229;28;20045;-67
2022/06/30 09:28:43;;;;;;;247.73;234.33;;;26.40;58.90;;;;;;5024640;28;20129;-67
2022/06/30 09:31:14;;;;;;;267.90;252.80;;;26.60;57.80;;;;;;4991729;28;20070;-67
2022/06/30 09:33:44;;;;;;;297.63;281.00;;;26.80;57.40;;;;;;5008772;28;20129;-67
2022/06/30 09:36:27;;;;;;;326.97;309.03;;;26.70;58.00;;;;;;5006146;28;20096;-67
2022/06/30 09:39:00;;;;;;;312.03;294.43;;;26.70;58.40;;;;;;5007986;28;20132;-67
2022/06/30 09:41:31;;;;;;;315.27;297.58;;;26.90;57.80;;;;;;5008245;28;20038;-67
2022/06/30 09:43:58;;;;;;;311.70;294.33;;;27.10;58.00;;;;;;5021620;28;20042;-67
2022/06/30 09:46:24;;;;;;;236.47;223.17;;;27.20;57.50;;;;;;5007673;28;20103;-67
2022/06/30 09:48:50;;;;;;;323.53;305.73;;;27.30;57.50;;;;;;5005441;28;20550;-67
2022/06/30 09:51:17;;;;;;;241.17;227.47;;;27.50;57.70;;;;;;5021013;28;20473;-67
2022/06/30 09:53:43;;;;;;;291.23;274.87;;;27.50;57.50;;;;;;5024234;28;20061;-67
2022/06/30 09:56:12;;;;;;;351.47;330.67;;;27.60;57.30;;;;;;4991414;28;20069;-67
2022/06/30 09:58:41;;;;;;;292.80;275.40;;;27.60;57.00;;;;;;5007465;28;20042;-67
2022/06/30 10:01:06;;;;;;;360.40;340.00;;;27.60;56.20;;;;;;5007284;28;20091;-67
2022/06/30 10:03:33;;;;;;;350.07;330.33;;;27.50;56.30;;;;;;5004713;28;20034;-66
2022/06/30 10:06:13;;;;;;;353.23;332.50;;;27.50;57.90;;;;;;5007973;28;20045;-66
2022/06/30 10:08:39;;;;;;;322.23;303.47;;;27.50;56.80;;;;;;5007926;28;20037;-66
2022/06/30 10:11:06;;;;;;;336.43;317.23;;;27.50;56.20;;;;;;5007289;28;20128;-66
2022/06/30 10:13:35;;;;;;;334.87;315.43;;;27.40;54.40;;;;;;4978996;28;20129;-67
2022/06/30 10:16:04;;;;;;;306.23;288.37;;;27.30;54.10;;;;;;5004122;28;20034;-66
2022/06/30 10:18:32;;;;;;;322.53;303.00;;;27.30;54.30;;;;;;5007517;28;20385;-66
2022/06/30 10:20:58;;;;;;;362.10;341.03;;;27.40;55.30;;;;;;5006895;28;20046;-66
2022/06/30 10:23:24;;;;;;;274.57;258.53;;;27.50;54.30;;;;;;5007135;28;20053;-66
2022/06/30 10:25:52;;;;;;;330.80;311.63;;;27.30;55.30;;;;;;5007657;28;20072;-66
2022/06/30 10:28:20;;;;;;;369.83;348.93;;;27.20;54.00;;;;;;5003747;28;20042;-66
2022/06/30 10:30:52;;;;;;;250.07;235.43;;;27.20;56.40;;;;;;4972616;28;20080;-66
2022/06/30 10:33:46;;;;;;;246.07;232.23;;;27.10;56.10;;;;;;5006880;28;20132;-66
2022/06/30 10:36:29;;;;;;;288.30;270.50;;;27.20;55.30;;;;;;5007708;28;20045;-66
2022/06/30 10:39:09;;;;;;;286.60;270.10;;;27.10;56.10;;;;;;5006831;28;20044;-66
2022/06/30 10:41:44;;;;;;;311.77;293.73;;;27.00;56.60;;;;;;5023013;28;20048;-66
2022/06/30 10:44:12;;;;;;;295.67;278.67;;;26.90;57.20;;;;;;5006444;28;20080;-66
2022/06/30 10:46:44;;;;;;;319.07;300.60;;;27.00;56.50;;;;;;4974416;28;20034;-66
2022/06/30 10:49:12;;;;;;;320.00;301.63;;;26.90;56.50;;;;;;5006895;28;20163;-66
2022/06/30 10:51:39;;;;;;;316.37;297.93;;;26.90;57.00;;;;;;5002129;28;20053;-66
2022/06/30 10:54:05;;;;;;;238.77;225.77;;;27.10;56.70;;;;;;4997558;28;20064;-66
2022/06/30 10:56:49;;;;;;;328.10;309.53;;;27.10;56.70;;;;;;4978568;28;20058;-66
2022/06/30 10:59:16;;;;;;;288.75;271.85;;;27.10;56.10;;;;;;5006545;28;20041;-67
2022/06/30 11:02:11;;;;;;;294.27;277.77;;;27.00;55.60;;;;;;5002572;28;20076;-67
2022/06/30 11:04:41;;;;;;;308.55;290.67;;;26.90;54.60;;;;;;4991947;28;20050;-66
2022/06/30 11:07:17;;;;;;;313.43;295.80;;;26.80;55.80;;;;;;5006064;28;20402;-66
2022/06/30 11:09:54;;;;;;;270.83;255.20;;;26.80;55.50;;;;;;5002166;28;20080;-66
2022/06/30 11:12:29;;;;;;;306.93;289.30;;;26.80;54.50;;;;;;5005380;28;20510;-66
2022/06/30 11:14:57;;;;;;;346.53;326.17;;;26.90;54.50;;;;;;5004893;28;20446;-66
2022/06/30 11:17:36;;;;;;;293.13;275.97;;;26.90;56.10;;;;;;5006294;28;20398;-66
2022/06/30 11:20:03;;;;;;;334.40;315.50;;;26.90;55.80;;;;;;5006083;28;20454;-66
2022/06/30 11:22:30;;;;;;;366.27;345.20;;;26.90;56.30;;;;;;5002285;28;20054;-66
2022/06/30 11:25:03;;;;;;;317.20;299.60;;;27.00;56.70;;;;;;5006394;28;20163;-66
2022/06/30 11:27:32;;;;;;;308.30;291.47;;;27.00;55.70;;;;;;5005623;28;20044;-66
2022/06/30 11:30:03;;;;;;;296.63;280.63;;;27.00;54.60;;;;;;5005827;28;20692;-66
2022/06/30 11:32:29;;;;;;;289.50;272.67;;;27.00;53.50;;;;;;5005680;28;20064;-66
2022/06/30 11:34:57;;;;;;;242.67;228.90;;;26.90;53.30;;;;;;5020501;28;20129;-66
2022/06/30 11:37:25;;;;;;;297.20;279.40;;;26.80;53.80;;;;;;5001850;28;20120;-66
2022/06/30 11:40:05;;;;;;;313.87;295.43;;;26.60;54.00;;;;;;4989764;28;20584;-66
2022/06/30 11:42:32;;;;;;;346.83;326.53;;;26.50;53.80;;;;;;5005534;28;20072;-66
2022/06/30 11:44:58;;;;;;;337.33;318.27;;;26.20;55.70;;;;;;5022632;28;20080;-66
2022/06/30 11:47:28;;;;;;;305.23;287.57;;;26.20;55.60;;;;;;5005199;28;20080;-66
2022/06/30 11:50:00;;;;;;;339.67;320.17;;;26.50;56.10;;;;;;5019700;28;20112;-66
2022/06/30 11:52:29;;;;;;;322.07;303.97;;;26.60;55.30;;;;;;5005100;28;20160;-66
2022/06/30 11:55:01;;;;;;;319.23;300.37;;;26.60;55.60;;;;;;4989146;28;20066;-66
2022/06/30 11:57:29;;;;;;;322.27;303.93;;;26.60;55.20;;;;;;5022086;28;20512;-66
2022/06/30 11:59:57;;;;;;;349.87;328.90;;;26.60;54.90;;;;;;5005361;28;20436;-66
2022/06/30 12:02:23;;;;;;;314.40;296.77;;;26.70;54.20;;;;;;4989667;28;20091;-66
2022/06/30 12:04:54;;;;;;;328.40;309.33;;;26.60;54.80;;;;;;5005343;28;20034;-66
2022/06/30 12:07:21;;;;;;;341.90;322.60;;;26.40;55.10;;;;;;5019585;28;20398;-66
2022/06/30 12:09:47;;;;;;;354.90;335.07;;;26.30;56.10;;;;;;5018467;28;20046;-66
2022/06/30 12:12:13;;;;;;;329.93;310.80;;;26.30;56.60;;;;;;5019523;28;20124;-66
2022/06/30 12:14:39;;;;;;;320.23;301.67;;;26.30;56.80;;;;;;4988435;28;20049;-66
2022/06/30 12:17:07;;;;;;;173.07;162.87;;;26.40;56.60;;;;;;5006042;28;20502;-66
2022/06/30 12:19:34;;;;;;;311.80;294.97;;;26.50;57.10;;;;;;5021713;28;20056;-66
2022/06/30 12:22:02;;;;;;;284.10;268.73;;;26.60;56.60;;;;;;5005900;28;20041;-66
2022/06/30 12:24:28;;;;;;;203.40;192.20;;;26.60;55.00;;;;;;5014292;28;20030;-66
2022/06/30 12:26:55;;;;;;;279.07;263.97;;;26.60;54.80;;;;;;5017952;28;20092;-66